ilmateenistus.ee keskkonnaagentuur.ee
EETN Tallinna lennuväli
FTEO31 EETN 110500
TAF EETN 110530Z 1106/1206 14009KT 9999 BKN025 PROB40 TEMPO 1106/1109
    BKN007 BECMG 1115/1117 BKN010 OVC020 PROB40 TEMPO 1118/1122 4000 SN
    TEMPO 1122/1206 2000 SN BKN006 OVC012=

METAR EETN 111050Z 11009KT CAVOK M02/M03 Q1000 R08/310195 NOSIG=
Tallinna lennuväli
EEKA Kärdla lennuväli
METAR EEKA 111050Z 12009KT 9999 SCT011 M00/M02 Q0998=
Kärdla lennuväli
EEKE Kuressaare lennuväli
FCEO32 EETN 110600 AAA
TAF AMD EEKE 111000Z 1107/1113 CNL=

METAR EEKE 111050Z 14016KT 9999 OVC023 01/M03 Q0996 R17/0///95=
Kuressaare lennuväli
EEPU Pärnu lennuväli
METAR EEPU 111050Z 09006KT 040V140 CAVOK M01/M04 Q0998=
Pärnu lennuväli
EETU Tartu lennuväli
METAR EETU 111050Z 12007KT CAVOK M02/M04 Q1001=
Tartu lennuväli
EEEI Ämari lennuväli
METAR EEEI 111050Z 10006KT CAVOK M01/M03 Q0999 R06/190095 NOSIG=
Ämari lennuväli